createdAt,value
2017-06-04T00:00:15.869Z,9.20
2017-06-04T00:02:42.097Z,8.60
2017-06-04T00:05:08.343Z,8.60
2017-06-04T00:07:34.670Z,8.67
2017-06-04T00:10:00.928Z,8.50
2017-06-04T00:12:27.884Z,8.60
2017-06-04T00:14:54.823Z,8.97
2017-06-04T00:17:21.786Z,9.63
2017-06-04T00:19:47.974Z,8.63
2017-06-04T00:22:14.192Z,7.60
2017-06-04T00:24:40.397Z,8.53
2017-06-04T00:27:06.616Z,7.10
2017-06-04T00:29:32.818Z,7.70
2017-06-04T00:31:59.783Z,7.27
2017-06-04T00:34:25.989Z,8.47
2017-06-04T00:36:52.945Z,8.20
2017-06-04T00:39:19.142Z,8.00
2017-06-04T00:41:45.371Z,10.33
2017-06-04T00:44:11.571Z,8.10
2017-06-04T00:46:37.782Z,7.77
2017-06-04T00:49:04.013Z,8.47
2017-06-04T00:51:30.209Z,8.20
2017-06-04T00:53:56.431Z,8.23
2017-06-04T00:56:22.629Z,8.30
2017-06-04T00:58:48.849Z,8.00
2017-06-04T01:01:15.050Z,8.90
2017-06-04T01:03:41.281Z,8.80
2017-06-04T01:06:07.487Z,8.27
2017-06-04T01:08:33.698Z,8.70
2017-06-04T01:11:00.686Z,9.50
2017-06-04T01:13:26.892Z,10.67
2017-06-04T01:15:53.113Z,9.37
2017-06-04T01:18:19.312Z,9.67
2017-06-04T01:20:46.286Z,9.30
2017-06-04T01:23:12.489Z,10.63
2017-06-04T01:25:39.486Z,10.57
2017-06-04T01:28:05.682Z,11.00
2017-06-04T01:30:31.906Z,9.43
2017-06-04T01:32:58.140Z,9.73
2017-06-04T01:35:24.358Z,8.30
2017-06-04T01:37:51.335Z,9.07
2017-06-04T01:40:17.556Z,9.40
2017-06-04T01:42:43.806Z,12.17
2017-06-04T01:45:10.021Z,9.90
2017-06-04T01:47:36.253Z,9.83
2017-06-04T01:50:02.482Z,9.37
2017-06-04T01:52:28.753Z,12.17
2017-06-04T01:54:54.948Z,14.47
2017-06-04T01:57:21.142Z,9.50
2017-06-04T01:59:47.357Z,8.97
2017-06-04T02:02:14.295Z,8.60
2017-06-04T02:04:41.258Z,9.57
2017-06-04T02:07:07.470Z,8.07
2017-06-04T02:09:34.451Z,7.50
2017-06-04T02:12:00.688Z,8.27
2017-06-04T02:14:26.926Z,7.77
2017-06-04T02:16:53.146Z,10.43
2017-06-04T02:19:19.422Z,9.03
2017-06-04T02:21:46.381Z,9.17
2017-06-04T02:24:13.356Z,8.50
2017-06-04T02:26:39.598Z,8.07
2017-06-04T02:29:05.819Z,9.00
2017-06-04T02:31:32.054Z,8.37
2017-06-04T02:33:58.256Z,8.10
2017-06-04T02:36:24.498Z,7.53
2017-06-04T02:38:50.698Z,9.13
2017-06-04T02:41:16.985Z,8.53
2017-06-04T02:43:43.200Z,9.00
2017-06-04T02:46:09.445Z,8.83
2017-06-04T02:48:35.674Z,10.37
2017-06-04T02:51:01.913Z,9.53
2017-06-04T02:53:28.135Z,10.63
2017-06-04T02:55:54.365Z,9.90
2017-06-04T02:58:20.581Z,11.20
2017-06-04T03:00:46.799Z,9.70
2017-06-04T03:03:13.042Z,9.00
2017-06-04T03:05:39.254Z,6.70
2017-06-04T03:08:05.499Z,5.87
2017-06-04T03:10:31.718Z,4.77
2017-06-04T03:12:57.977Z,3.73
2017-06-04T03:15:24.942Z,4.40
2017-06-04T03:17:51.178Z,6.90
2017-06-04T03:20:17.426Z,3.30
2017-06-04T03:22:43.666Z,3.77
2017-06-04T03:25:09.884Z,3.37
2017-06-04T03:27:36.149Z,2.07
2017-06-04T03:30:02.378Z,2.00
2017-06-04T03:32:28.593Z,3.00
2017-06-04T03:34:54.828Z,1.17
2017-06-04T03:37:21.044Z,3.27
2017-06-04T03:39:47.283Z,1.17
2017-06-04T03:42:13.504Z,1.50
2017-06-04T03:44:39.742Z,0.97
2017-06-04T03:47:05.953Z,1.50
2017-06-04T03:49:32.191Z,1.90
2017-06-04T03:51:58.423Z,2.00
2017-06-04T03:54:24.674Z,2.37
2017-06-04T03:56:50.890Z,3.30
2017-06-04T03:59:17.109Z,3.30
2017-06-04T04:01:43.338Z,3.70
2017-06-04T04:04:09.547Z,5.30
2017-06-04T04:06:35.777Z,6.30
2017-06-04T04:09:02.033Z,8.37
2017-06-04T04:11:28.275Z,7.50
2017-06-04T04:13:55.223Z,8.43
2017-06-04T04:16:22.189Z,8.03
2017-06-04T04:18:48.397Z,13.87
2017-06-04T04:21:15.365Z,8.80
2017-06-04T04:23:41.560Z,9.43
2017-06-04T04:26:07.764Z,9.07
2017-06-04T04:28:33.994Z,8.77
2017-06-04T04:31:00.196Z,7.87
2017-06-04T04:33:26.424Z,8.07
2017-06-04T04:35:52.611Z,7.27
2017-06-04T04:38:19.577Z,7.37
2017-06-04T04:40:46.469Z,6.83
2017-06-04T04:43:12.695Z,5.83
2017-06-04T04:45:38.897Z,5.80
2017-06-04T04:48:05.109Z,3.73
2017-06-04T04:50:31.300Z,3.30
2017-06-04T04:52:57.505Z,3.27
2017-06-04T04:55:23.725Z,2.67
2017-06-04T04:57:49.916Z,2.33
2017-06-04T05:00:16.140Z,1.90
2017-06-04T05:02:42.333Z,2.03
2017-06-04T05:05:08.553Z,1.80
2017-06-04T05:07:34.757Z,1.20
2017-06-04T05:10:00.972Z,3.03
2017-06-04T05:12:27.205Z,4.37
2017-06-04T05:14:53.453Z,2.53
2017-06-04T05:17:19.669Z,2.87
2017-06-04T05:19:45.890Z,2.53
2017-06-04T05:22:28.005Z,3.27
2017-06-04T05:24:54.245Z,3.03
2017-06-04T05:27:26.683Z,2.77
2017-06-04T05:29:52.884Z,4.90
2017-06-04T05:32:19.885Z,3.40
2017-06-04T05:34:46.104Z,3.73
2017-06-04T05:37:12.336Z,3.07
2017-06-04T05:39:38.574Z,3.10
2017-06-04T05:42:04.812Z,4.20
2017-06-04T05:44:31.036Z,3.00
2017-06-04T05:46:57.285Z,3.00
2017-06-04T05:49:23.503Z,3.00
2017-06-04T05:51:49.725Z,3.30
2017-06-04T05:54:15.961Z,3.23
2017-06-04T05:56:42.186Z,2.87
2017-06-04T05:59:08.420Z,2.33
2017-06-04T06:01:34.638Z,2.30
2017-06-04T06:04:00.889Z,2.10
2017-06-04T06:06:27.840Z,3.43
2017-06-04T06:08:54.821Z,2.80
2017-06-04T06:11:21.059Z,1.93
2017-06-04T06:13:47.308Z,2.50
2017-06-04T06:16:13.528Z,2.57
2017-06-04T06:18:39.748Z,2.07
2017-06-04T06:21:05.975Z,2.77
2017-06-04T06:23:32.185Z,2.47
2017-06-04T06:25:58.428Z,2.40
2017-06-04T06:28:24.647Z,2.23
2017-06-04T06:30:50.889Z,2.40
2017-06-04T06:33:17.106Z,3.03
2017-06-04T06:35:43.340Z,2.80
2017-06-04T06:38:09.552Z,2.23
2017-06-04T06:40:35.786Z,2.77
2017-06-04T06:43:02.014Z,2.30
2017-06-04T06:45:28.230Z,2.90
2017-06-04T06:47:54.471Z,2.10
2017-06-04T06:50:20.686Z,3.53
2017-06-04T06:52:46.921Z,2.43
2017-06-04T06:55:13.139Z,2.93
2017-06-04T06:57:39.385Z,3.00
2017-06-04T07:00:05.607Z,2.60
2017-06-04T07:02:31.849Z,3.73
2017-06-04T07:04:58.057Z,2.50
2017-06-04T07:07:24.298Z,2.30
2017-06-04T07:09:50.511Z,2.87
2017-06-04T07:12:16.729Z,2.13
2017-06-04T07:14:42.952Z,3.13
2017-06-04T07:17:09.899Z,4.60
2017-06-04T07:19:36.865Z,3.13
2017-06-04T07:22:03.065Z,2.90
2017-06-04T07:24:30.023Z,3.10
2017-06-04T07:26:56.223Z,2.50
2017-06-04T07:29:22.438Z,2.70
2017-06-04T07:31:48.644Z,2.60
2017-06-04T07:34:14.885Z,2.90
2017-06-04T07:36:41.082Z,2.40
2017-06-04T07:39:07.334Z,3.60
2017-06-04T07:41:33.557Z,1.73
2017-06-04T07:43:59.773Z,1.83
2017-06-04T07:46:25.998Z,3.13
2017-06-04T07:48:52.201Z,1.87
2017-06-04T07:51:18.419Z,1.77
2017-06-04T07:53:45.370Z,2.13
2017-06-04T07:56:12.337Z,2.13
2017-06-04T07:58:38.547Z,1.40
2017-06-04T08:01:04.797Z,2.50
2017-06-04T08:03:31.002Z,1.40
2017-06-04T08:05:57.985Z,1.47
2017-06-04T08:08:24.191Z,1.50
2017-06-04T08:10:50.466Z,1.17
2017-06-04T08:13:16.685Z,1.13
2017-06-04T08:15:42.906Z,0.87
2017-06-04T08:18:09.138Z,0.80
2017-06-04T08:20:35.358Z,1.13
2017-06-04T08:23:01.602Z,0.90
2017-06-04T08:25:27.823Z,1.10
2017-06-04T08:27:54.067Z,0.60
2017-06-04T08:30:20.278Z,0.83
2017-06-04T08:32:46.526Z,0.87
2017-06-04T08:35:12.748Z,0.90
2017-06-04T08:37:38.984Z,1.83
2017-06-04T08:40:05.206Z,1.23
2017-06-04T08:42:31.485Z,2.63
2017-06-04T08:44:57.696Z,2.20
2017-06-04T08:47:24.651Z,1.10
2017-06-04T08:49:50.891Z,1.40
2017-06-04T08:52:17.117Z,0.80
2017-06-04T08:54:43.359Z,1.00
2017-06-04T08:57:09.574Z,1.57
2017-06-04T08:59:35.839Z,0.97
2017-06-04T09:02:02.054Z,1.30
2017-06-04T09:04:28.287Z,1.10
2017-06-04T09:06:54.514Z,1.53
2017-06-04T09:09:20.748Z,1.50
2017-06-04T09:11:46.981Z,1.50
2017-06-04T09:14:13.206Z,1.50
2017-06-04T09:16:39.437Z,3.90
2017-06-04T09:19:05.652Z,1.87
2017-06-04T09:21:31.902Z,1.30
2017-06-04T09:23:58.116Z,1.43
2017-06-04T09:26:24.353Z,1.40
2017-06-04T09:28:50.571Z,1.47
2017-06-04T09:31:16.814Z,1.70
2017-06-04T09:33:43.025Z,1.90
2017-06-04T09:36:09.268Z,1.27
2017-06-04T09:38:35.479Z,3.13
2017-06-04T09:41:01.741Z,2.83
2017-06-04T09:43:27.949Z,1.90
2017-06-04T09:45:54.171Z,2.60
2017-06-04T09:48:20.413Z,4.80
2017-06-04T09:50:46.626Z,3.60
2017-06-04T09:53:12.858Z,3.77
2017-06-04T09:55:39.074Z,4.33
2017-06-04T09:58:05.317Z,4.50
2017-06-04T10:00:31.538Z,4.97
2017-06-04T10:02:57.773Z,5.00
2017-06-04T10:05:23.990Z,4.00
2017-06-04T10:07:50.218Z,4.70
2017-06-04T10:10:16.440Z,4.80
2017-06-04T10:12:42.681Z,4.60
2017-06-04T10:15:08.930Z,5.00
2017-06-04T10:17:35.155Z,4.60
2017-06-04T10:20:01.400Z,5.57
2017-06-04T10:22:28.372Z,5.53
2017-06-04T10:24:54.610Z,5.30
2017-06-04T10:27:20.825Z,5.10
2017-06-04T10:29:47.066Z,5.20
2017-06-04T10:32:13.293Z,5.20
2017-06-04T10:34:39.516Z,5.90
2017-06-04T10:37:05.761Z,4.93
2017-06-04T10:39:31.983Z,5.57
2017-06-04T10:41:58.219Z,5.80
2017-06-04T10:44:24.442Z,6.40
2017-06-04T10:46:50.685Z,6.53
2017-06-04T10:49:16.904Z,6.87
2017-06-04T10:51:43.137Z,8.37
2017-06-04T10:54:09.358Z,9.30
2017-06-04T10:56:35.592Z,8.67
2017-06-04T10:59:01.814Z,8.90
2017-06-04T11:01:28.025Z,8.50
2017-06-04T11:03:54.271Z,9.07
2017-06-04T11:06:20.498Z,8.83
2017-06-04T11:08:46.750Z,10.10
2017-06-04T11:11:12.983Z,8.73
2017-06-04T11:13:39.230Z,9.60
2017-06-04T11:16:05.441Z,9.30
2017-06-04T11:18:31.674Z,8.13
2017-06-04T11:20:57.904Z,9.13
2017-06-04T11:23:24.141Z,7.23
2017-06-04T11:25:50.361Z,5.70
2017-06-04T11:28:16.624Z,6.20
2017-06-04T11:30:43.580Z,6.23
2017-06-04T11:33:09.813Z,5.67
2017-06-04T11:35:36.058Z,5.90
2017-06-04T11:38:02.281Z,4.87
2017-06-04T11:40:28.526Z,4.27
2017-06-04T11:42:54.744Z,4.90
2017-06-04T11:45:20.983Z,5.07
2017-06-04T11:47:47.204Z,5.20
2017-06-04T11:50:13.429Z,4.23
2017-06-04T11:52:39.645Z,4.93
2017-06-04T11:55:05.887Z,4.30
2017-06-04T11:57:32.103Z,4.27
2017-06-04T11:59:58.362Z,4.70
2017-06-04T12:02:24.568Z,4.47
2017-06-04T12:04:50.784Z,6.03
2017-06-04T12:07:17.025Z,4.90
2017-06-04T12:09:43.243Z,6.33
2017-06-04T12:12:09.490Z,7.47
2017-06-04T12:14:35.683Z,4.73
2017-06-04T12:17:01.916Z,4.97
2017-06-04T12:19:28.114Z,5.07
2017-06-04T12:21:54.345Z,4.70
2017-06-04T12:24:21.287Z,4.50
2017-06-04T12:26:47.516Z,4.30
2017-06-04T12:29:13.721Z,4.53
2017-06-04T12:31:39.966Z,4.53
2017-06-04T12:34:06.161Z,6.30
2017-06-04T12:36:32.359Z,3.87
2017-06-04T12:38:58.577Z,4.47
2017-06-04T12:41:25.529Z,4.33
2017-06-04T12:43:51.759Z,4.73
2017-06-04T12:46:17.968Z,4.20
2017-06-04T12:48:44.933Z,5.00
2017-06-04T12:51:11.144Z,5.10
2017-06-04T12:53:38.136Z,4.13
2017-06-04T12:56:04.340Z,7.30
2017-06-04T12:58:30.546Z,4.70
2017-06-04T13:00:57.509Z,4.50
2017-06-04T13:03:23.714Z,4.17
2017-06-04T13:08:24.371Z,4.10
2017-06-04T13:10:58.225Z,3.50
2017-06-04T13:13:24.445Z,4.03
2017-06-04T13:15:50.681Z,3.67
2017-06-04T13:18:16.875Z,3.80
2017-06-04T13:20:43.089Z,4.20
2017-06-04T13:23:10.044Z,3.90
2017-06-04T13:25:36.246Z,3.80
2017-06-04T13:28:02.464Z,5.43
2017-06-04T13:30:28.666Z,5.40
2017-06-04T13:32:54.889Z,4.37
2017-06-04T13:35:21.086Z,5.10
2017-06-04T13:37:47.313Z,4.57
2017-06-04T13:40:13.522Z,5.40
2017-06-04T13:42:40.482Z,5.90
2017-06-04T13:45:06.701Z,5.80
2017-06-04T13:47:33.645Z,5.87
2017-06-04T13:50:00.605Z,6.20
2017-06-04T13:52:26.813Z,8.03
2017-06-04T13:54:53.780Z,5.10
2017-06-04T13:57:19.998Z,4.13
2017-06-04T13:59:46.219Z,5.03
2017-06-04T14:02:13.162Z,5.83
2017-06-04T14:04:40.100Z,5.23
2017-06-04T14:07:06.321Z,4.60
2017-06-04T14:09:32.517Z,5.20
2017-06-04T14:11:58.752Z,4.30
2017-06-04T14:14:24.945Z,5.20
2017-06-04T14:16:51.175Z,5.63
2017-06-04T14:19:17.419Z,4.60
2017-06-04T14:21:43.661Z,3.80
2017-06-04T14:24:09.865Z,4.73
2017-06-04T14:26:36.065Z,4.30
2017-06-04T14:29:03.039Z,4.30
2017-06-04T14:31:29.245Z,4.07
2017-06-04T14:33:55.469Z,3.70
2017-06-04T14:36:22.403Z,3.43
2017-06-04T14:38:49.395Z,6.40
2017-06-04T14:41:15.610Z,4.17
2017-06-04T14:43:41.842Z,6.20
2017-06-04T14:46:08.047Z,4.73
2017-06-04T14:48:34.300Z,3.70
2017-06-04T14:51:00.509Z,4.70
2017-06-04T14:53:26.746Z,3.57
2017-06-04T14:55:52.966Z,2.87
2017-06-04T14:58:19.173Z,3.40
2017-06-04T15:00:46.132Z,3.93
2017-06-04T15:03:13.081Z,2.60
2017-06-04T15:05:39.304Z,2.90
2017-06-04T15:08:05.505Z,4.03
2017-06-04T15:10:31.727Z,5.10
2017-06-04T15:12:57.974Z,2.50
2017-06-04T15:15:24.972Z,3.10
2017-06-04T15:17:51.181Z,3.97
2017-06-04T15:20:17.401Z,3.13
2017-06-04T15:22:43.645Z,2.50
2017-06-04T15:25:09.851Z,3.80
2017-06-04T15:27:36.129Z,2.73
2017-06-04T15:30:02.348Z,3.50
2017-06-04T15:32:28.593Z,3.00
2017-06-04T15:34:54.811Z,2.93
2017-06-04T15:37:21.058Z,4.30
2017-06-04T15:39:47.276Z,2.10
2017-06-04T15:42:13.514Z,2.27
2017-06-04T15:44:39.733Z,3.87
2017-06-04T15:47:05.989Z,3.37
2017-06-04T15:49:32.953Z,2.53
2017-06-04T15:51:59.170Z,2.20
2017-06-04T15:54:26.147Z,2.70
2017-06-04T15:56:52.357Z,3.33
2017-06-04T15:59:18.601Z,2.70
2017-06-04T16:01:44.819Z,1.83
2017-06-04T16:04:11.068Z,3.37
2017-06-04T16:06:37.286Z,2.87
2017-06-04T16:09:03.572Z,4.00
2017-06-04T16:11:29.809Z,2.40
2017-06-04T16:13:56.769Z,2.47
2017-06-04T16:16:23.745Z,2.10
2017-06-04T16:18:49.966Z,3.20
2017-06-04T16:21:16.202Z,2.23
2017-06-04T16:23:42.418Z,8.40
2017-06-04T16:26:08.647Z,4.53
2017-06-04T16:28:34.865Z,2.57
2017-06-04T16:31:01.099Z,3.10
2017-06-04T16:33:27.307Z,2.30
2017-06-04T16:35:54.285Z,2.67
2017-06-04T16:38:20.496Z,2.47
2017-06-04T16:40:46.709Z,2.30
2017-06-04T16:43:13.689Z,4.33
2017-06-04T16:45:39.915Z,2.13
2017-06-04T16:48:06.166Z,5.47
2017-06-04T16:50:32.375Z,1.77
2017-06-04T16:52:58.612Z,2.57
2017-06-04T16:55:24.830Z,2.73
2017-06-04T16:57:51.075Z,5.80
2017-06-04T17:00:17.302Z,2.83
2017-06-04T17:02:43.541Z,5.90
2017-06-04T17:05:09.759Z,6.70
2017-06-04T17:07:36.015Z,4.37
2017-06-04T17:10:02.237Z,3.10
2017-06-04T17:12:28.464Z,2.13
2017-06-04T17:14:54.690Z,4.10
2017-06-04T17:17:20.894Z,2.07
2017-06-04T17:19:47.117Z,2.13
2017-06-04T17:22:13.320Z,2.63
2017-06-04T17:24:39.541Z,3.57
2017-06-04T17:27:05.737Z,2.20
2017-06-04T17:29:31.967Z,2.40
2017-06-04T17:31:58.167Z,2.20
2017-06-04T17:34:24.401Z,2.13
2017-06-04T17:36:50.606Z,7.70
2017-06-04T17:39:16.842Z,3.27
2017-06-04T17:41:43.042Z,2.63
2017-06-04T17:44:09.238Z,2.33
2017-06-04T17:46:35.461Z,2.87
2017-06-04T17:49:01.666Z,3.23
2017-06-04T17:51:27.899Z,3.90
2017-06-04T17:53:54.102Z,3.93
2017-06-04T17:56:21.137Z,3.20
2017-06-04T17:58:47.339Z,2.97
2017-06-04T18:01:14.305Z,2.50
2017-06-04T18:03:40.511Z,3.07
2017-06-04T18:06:07.480Z,2.27
2017-06-04T18:08:33.681Z,4.20
2017-06-04T18:11:00.666Z,4.50
2017-06-04T18:13:26.866Z,3.10
2017-06-04T18:15:53.835Z,4.50
2017-06-04T18:18:20.077Z,2.73
2017-06-04T18:20:46.341Z,4.30
2017-06-04T18:23:12.585Z,3.20
2017-06-04T18:25:39.567Z,2.87
2017-06-04T18:28:05.809Z,2.80
2017-06-04T18:30:32.016Z,3.20
2017-06-04T18:32:58.234Z,6.07
2017-06-04T18:35:24.431Z,3.20
2017-06-04T18:37:50.655Z,3.00
2017-06-04T18:40:16.880Z,13.20
2017-06-04T18:42:43.101Z,2.50
2017-06-04T18:45:09.307Z,3.40
2017-06-04T18:47:35.533Z,4.23
2017-06-04T18:50:01.742Z,4.60
2017-06-04T18:52:27.945Z,5.60
2017-06-04T18:54:54.905Z,6.47
2017-06-04T18:57:21.125Z,7.17
2017-06-04T18:59:47.342Z,6.50
2017-06-04T19:02:14.296Z,3.70
2017-06-04T19:04:41.264Z,3.60
2017-06-04T19:07:07.464Z,3.20
2017-06-04T19:09:34.425Z,3.00
2017-06-04T19:12:00.684Z,4.07
2017-06-04T19:14:26.908Z,6.10
2017-06-04T19:16:53.112Z,3.73
2017-06-04T19:19:19.342Z,5.83
2017-06-04T19:21:45.560Z,6.63
2017-06-04T19:24:11.790Z,5.03
2017-06-04T19:26:37.990Z,7.30
2017-06-04T19:29:04.217Z,5.47
2017-06-04T19:31:30.413Z,7.50
2017-06-04T19:33:56.614Z,3.73
2017-06-04T19:36:22.847Z,3.40
2017-06-04T19:38:49.048Z,3.67
2017-06-04T19:41:16.015Z,4.20
2017-06-04T19:43:42.230Z,5.97
2017-06-04T19:46:08.493Z,7.90
2017-06-04T19:48:34.693Z,3.77
2017-06-04T19:51:00.914Z,4.20
2017-06-04T19:53:27.116Z,4.27
2017-06-04T19:55:54.094Z,5.20
2017-06-04T19:58:20.301Z,5.47
2017-06-04T20:00:47.270Z,7.30
2017-06-04T20:03:13.474Z,4.03
2017-06-04T20:05:40.438Z,4.00
2017-06-04T20:08:06.642Z,3.33
2017-06-04T20:10:33.593Z,4.00
2017-06-04T20:13:00.587Z,4.33
2017-06-04T20:15:26.847Z,3.73
2017-06-04T20:17:53.113Z,8.60
2017-06-04T20:20:19.335Z,4.80
2017-06-04T20:22:45.569Z,6.57
2017-06-04T20:25:11.785Z,7.40
2017-06-04T20:27:38.766Z,4.00
2017-06-04T20:30:04.994Z,6.83
2017-06-04T20:32:31.231Z,4.93
2017-06-04T20:34:57.456Z,12.87
2017-06-04T20:37:23.689Z,12.53
2017-06-04T20:39:49.909Z,8.47
2017-06-04T20:42:16.133Z,7.57
2017-06-04T20:44:42.374Z,9.40
2017-06-04T20:47:08.580Z,9.60
2017-06-04T20:49:34.817Z,7.93
2017-06-04T20:52:01.042Z,10.90
2017-06-04T20:54:27.278Z,14.33
2017-06-04T20:56:53.487Z,14.63
2017-06-04T20:59:19.725Z,14.03
2017-06-04T21:01:45.947Z,16.20
2017-06-04T21:04:12.185Z,12.87
2017-06-04T21:06:38.407Z,10.97
2017-06-04T21:09:04.650Z,8.80
2017-06-04T21:11:30.914Z,9.20
2017-06-04T21:14:04.314Z,9.30
2017-06-04T21:16:30.549Z,13.53
2017-06-04T21:18:57.511Z,11.67
2017-06-04T21:21:24.497Z,11.03
2017-06-04T21:23:50.718Z,7.00
2017-06-04T21:26:16.953Z,6.23
2017-06-04T21:28:43.166Z,6.30
2017-06-04T21:31:09.401Z,6.70
2017-06-04T21:33:35.614Z,6.30
2017-06-04T21:36:01.858Z,5.83
2017-06-04T21:38:28.077Z,5.23
2017-06-04T21:40:54.311Z,6.30
2017-06-04T21:43:20.543Z,5.07
2017-06-04T21:45:46.804Z,5.17
2017-06-04T21:48:13.023Z,6.43
2017-06-04T21:50:39.228Z,6.70
2017-06-04T21:53:05.465Z,6.87
2017-06-04T21:55:31.676Z,6.30
2017-06-04T21:57:57.912Z,6.57
2017-06-04T22:00:24.130Z,5.83
2017-06-04T22:02:50.371Z,6.97
2017-06-04T22:05:16.589Z,6.70
2017-06-04T22:07:42.833Z,4.87
2017-06-04T22:10:09.054Z,8.57
2017-06-04T22:12:35.306Z,5.53
2017-06-04T22:17:35.314Z,6.00
2017-06-04T22:20:01.505Z,5.03
2017-06-04T22:22:28.486Z,5.67
2017-06-04T22:24:54.677Z,5.77
2017-06-04T22:27:21.630Z,5.90
2017-06-04T22:29:48.610Z,8.47
2017-06-04T22:32:14.810Z,8.60
2017-06-04T22:34:41.034Z,5.77
2017-06-04T22:37:07.236Z,4.70
2017-06-04T22:39:33.448Z,4.73
2017-06-04T22:41:59.660Z,6.03
2017-06-04T22:44:25.887Z,6.00
2017-06-04T22:46:52.103Z,6.80
2017-06-04T22:49:18.333Z,5.03
2017-06-04T22:51:44.538Z,6.30
2017-06-04T22:54:10.760Z,5.53
2017-06-04T22:56:37.693Z,6.23
2017-06-04T22:59:04.678Z,5.80
2017-06-04T23:01:30.893Z,6.50
2017-06-04T23:03:57.094Z,4.17
2017-06-04T23:06:24.054Z,9.00
2017-06-04T23:08:50.261Z,5.33
2017-06-04T23:11:16.513Z,4.73
2017-06-04T23:13:42.727Z,4.97
2017-06-04T23:16:09.717Z,6.20
2017-06-04T23:18:35.936Z,6.10
2017-06-04T23:21:02.174Z,7.17
2017-06-04T23:23:28.392Z,4.90
2017-06-04T23:25:54.629Z,5.30
2017-06-04T23:28:20.848Z,5.67
2017-06-04T23:30:47.089Z,6.70
2017-06-04T23:33:13.321Z,5.27
2017-06-04T23:35:39.565Z,5.67
2017-06-04T23:38:05.776Z,5.83
2017-06-04T23:40:32.039Z,6.90
2017-06-04T23:42:58.256Z,9.10
2017-06-04T23:45:24.470Z,6.27
2017-06-04T23:47:50.698Z,6.30
2017-06-04T23:50:16.914Z,7.73
2017-06-04T23:52:43.165Z,6.17
2017-06-04T23:55:09.425Z,6.93
2017-06-04T23:57:36.406Z,6.40
